Hauptseite
METAR-TAF:

METAR-TAF

Flughäfen :

Flughafen Engadin

St. Moritz, Schweiz

Breite: 46-32-03N, Länge: 9-53-03E, Höhe: 1707 m

Beobachtung

Neuester Wetterbericht von vor 28 Minuten, um 01:50 UTC
Wind 2 kt aus Süd
Temperatur 2°C
Luftfeuchtigkeit 93%
Luftdruck 1025 hPa
Sichtweite 10 km oder mehr
keine Wolken unter 1500 m und keine Kumulonimbus oder Gewitterwolken

METAR: LSZS 260150Z AUTO 18002KT CAVOK 02/01 Q1025

Zeit: 04:18 (02:18 UTC)


TAF: fehlend

Wetterbeobachtungen und Prognosen von mehr als 4000 Flughäfen (METAR und TAF Bericht).

Die verfügbaren Stationen werden durch gelbe und rote Markierungen auf der Karte dargestellt.

Führen Sie die Maus auf sie, um den Namen der Station zu sehen.

Darauf klicken, um die Beobachtung von Wetterbeobachtungen und Prognosen zu sehen.

Um die Karte zu ändern : klicken Sie auf den grünen Tasten mit einem schwarzen Kreuz Zum Vergrößern, auf den grünen Button mit einem Gedankenstrich zu verkleinern, oder auf die grünen Pfeile für benachbarte Karten.


METAR-TAF: